sensor_id;sensor_type;location;lat;lon;timestamp;pressure;altitude;pressure_sealevel;temperature;humidity
73864;BME280;62200;52.062;5.292;2022-07-29T00:01:15;101817.56;;;15.59;67.11
73864;BME280;62200;52.062;5.292;2022-07-29T00:03:41;101816.19;;;15.54;66.24
73864;BME280;62200;52.062;5.292;2022-07-29T00:06:07;101808.03;;;15.55;67.41
73864;BME280;62200;52.062;5.292;2022-07-29T00:08:33;101815.00;;;15.58;67.01
73864;BME280;62200;52.062;5.292;2022-07-29T00:10:58;101812.44;;;15.56;66.93
73864;BME280;62200;52.062;5.292;2022-07-29T00:13:24;101788.72;;;15.50;67.12
73864;BME280;62200;52.062;5.292;2022-07-29T00:15:49;101796.25;;;15.45;66.88
73864;BME280;62200;52.062;5.292;2022-07-29T00:18:15;101788.69;;;15.38;67.06
73864;BME280;62200;52.062;5.292;2022-07-29T00:20:40;101795.38;;;15.45;66.58
73864;BME280;62200;52.062;5.292;2022-07-29T00:23:05;101788.44;;;15.42;67.16
73864;BME280;62200;52.062;5.292;2022-07-29T00:25:31;101795.91;;;15.37;67.36
73864;BME280;62200;52.062;5.292;2022-07-29T00:27:56;101783.38;;;15.25;68.58
73864;BME280;62200;52.062;5.292;2022-07-29T00:30:22;101786.81;;;15.27;67.46
73864;BME280;62200;52.062;5.292;2022-07-29T00:32:47;101769.84;;;15.14;68.04
73864;BME280;62200;52.062;5.292;2022-07-29T00:35:13;101780.56;;;15.14;68.60
73864;BME280;62200;52.062;5.292;2022-07-29T00:37:57;101776.19;;;15.13;68.64
73864;BME280;62200;52.062;5.292;2022-07-29T00:40:22;101785.28;;;15.10;68.80
73864;BME280;62200;52.062;5.292;2022-07-29T00:42:49;101776.69;;;15.05;68.96
73864;BME280;62200;52.062;5.292;2022-07-29T00:45:16;101777.34;;;15.09;68.55
73864;BME280;62200;52.062;5.292;2022-07-29T00:47:42;101757.53;;;14.99;69.44
73864;BME280;62200;52.062;5.292;2022-07-29T00:50:09;101773.16;;;15.05;69.40
73864;BME280;62200;52.062;5.292;2022-07-29T00:52:36;101765.75;;;15.08;68.46
73864;BME280;62200;52.062;5.292;2022-07-29T00:55:04;101774.03;;;15.05;69.53
73864;BME280;62200;52.062;5.292;2022-07-29T00:57:30;101761.25;;;14.96;69.09
73864;BME280;62200;52.062;5.292;2022-07-29T00:59:56;101758.28;;;15.01;69.62
73864;BME280;62200;52.062;5.292;2022-07-29T01:02:22;101762.78;;;15.00;69.25
73864;BME280;62200;52.062;5.292;2022-07-29T01:04:47;101751.63;;;14.94;69.54
73864;BME280;62200;52.062;5.292;2022-07-29T01:07:13;101747.97;;;14.95;69.45
73864;BME280;62200;52.062;5.292;2022-07-29T01:09:40;101748.63;;;14.98;69.53
73864;BME280;62200;52.062;5.292;2022-07-29T01:12:06;101743.06;;;14.89;70.19
73864;BME280;62200;52.062;5.292;2022-07-29T01:14:33;101754.53;;;14.91;69.73
73864;BME280;62200;52.062;5.292;2022-07-29T01:17:14;101759.97;;;14.89;69.85
73864;BME280;62200;52.062;5.292;2022-07-29T01:20:10;101761.47;;;14.93;69.84
73864;BME280;62200;52.062;5.292;2022-07-29T01:25:54;101761.81;;;14.89;69.48
73864;BME280;62200;52.062;5.292;2022-07-29T01:31:07;101756.03;;;14.82;70.26
73864;BME280;62200;52.062;5.292;2022-07-29T01:33:40;101766.81;;;14.81;69.59
73864;BME280;62200;52.062;5.292;2022-07-29T01:36:35;101761.88;;;14.75;70.57
73864;BME280;62200;52.062;5.292;2022-07-29T01:39:10;101761.13;;;14.73;70.65
73864;BME280;62200;52.062;5.292;2022-07-29T01:41:40;101760.91;;;14.76;70.77
73864;BME280;62200;52.062;5.292;2022-07-29T01:44:21;101756.09;;;14.68;71.05
73864;BME280;62200;52.062;5.292;2022-07-29T01:46:53;101755.44;;;14.65;71.20
73864;BME280;62200;52.062;5.292;2022-07-29T01:49:24;101750.38;;;14.60;71.81
73864;BME280;62200;52.062;5.292;2022-07-29T01:51:54;101756.38;;;14.51;71.92
73864;BME280;62200;52.062;5.292;2022-07-29T01:54:38;101767.09;;;14.51;72.03
73864;BME280;62200;52.062;5.292;2022-07-29T01:57:09;101742.53;;;14.45;71.77
73864;BME280;62200;52.062;5.292;2022-07-29T01:59:37;101761.72;;;14.51;71.79
73864;BME280;62200;52.062;5.292;2022-07-29T02:02:04;101750.16;;;14.51;72.03
73864;BME280;62200;52.062;5.292;2022-07-29T02:04:34;101749.28;;;14.50;71.22
73864;BME280;62200;52.062;5.292;2022-07-29T02:07:03;101737.00;;;14.48;71.67
73864;BME280;62200;52.062;5.292;2022-07-29T02:09:31;101756.81;;;14.58;71.41
73864;BME280;62200;52.062;5.292;2022-07-29T02:11:59;101746.22;;;14.56;72.13
73864;BME280;62200;52.062;5.292;2022-07-29T02:14:29;101743.00;;;14.51;71.96
73864;BME280;62200;52.062;5.292;2022-07-29T02:16:58;101750.91;;;14.53;71.84
73864;BME280;62200;52.062;5.292;2022-07-29T02:19:26;101737.00;;;14.48;71.91
73864;BME280;62200;52.062;5.292;2022-07-29T02:21:54;101756.28;;;14.53;71.54
73864;BME280;62200;52.062;5.292;2022-07-29T02:24:21;101758.94;;;14.53;71.49
73864;BME280;62200;52.062;5.292;2022-07-29T02:26:49;101754.66;;;14.50;71.04
73864;BME280;62200;52.062;5.292;2022-07-29T02:29:15;101758.94;;;14.53;71.51
73864;BME280;62200;52.062;5.292;2022-07-29T02:31:43;101749.28;;;14.50;71.71
73864;BME280;62200;52.062;5.292;2022-07-29T02:34:10;101749.84;;;14.55;71.56
73864;BME280;62200;52.062;5.292;2022-07-29T02:36:37;101746.41;;;14.53;71.41
73864;BME280;62200;52.062;5.292;2022-07-29T02:39:04;101740.44;;;14.50;71.72
73864;BME280;62200;52.062;5.292;2022-07-29T02:41:35;101736.25;;;14.46;71.73
73864;BME280;62200;52.062;5.292;2022-07-29T02:44:09;101734.50;;;14.45;72.42
73864;BME280;62200;52.062;5.292;2022-07-29T02:46:36;101748.34;;;14.51;72.25
73864;BME280;62200;52.062;5.292;2022-07-29T02:49:07;101743.00;;;14.51;72.08
73864;BME280;62200;52.062;5.292;2022-07-29T02:51:43;101731.19;;;14.41;72.26
73864;BME280;62200;52.062;5.292;2022-07-29T02:54:11;101735.91;;;14.50;71.91
73864;BME280;62200;52.062;5.292;2022-07-29T02:56:40;101745.56;;;14.53;71.85
73864;BME280;62200;52.062;5.292;2022-07-29T02:59:10;101731.75;;;14.46;71.40
73864;BME280;62200;52.062;5.292;2022-07-29T03:01:39;101748.47;;;14.50;71.90
73864;BME280;62200;52.062;5.292;2022-07-29T03:04:05;101746.84;;;14.47;71.85
73864;BME280;62200;52.062;5.292;2022-07-29T03:06:33;101734.72;;;14.42;71.95
73864;BME280;62200;52.062;5.292;2022-07-29T03:09:00;101749.72;;;14.44;72.33
73864;BME280;62200;52.062;5.292;2022-07-29T03:11:26;101742.75;;;14.42;72.11
73864;BME280;62200;52.062;5.292;2022-07-29T03:13:51;101737.41;;;14.42;71.78
73864;BME280;62200;52.062;5.292;2022-07-29T03:16:19;101745.13;;;14.46;71.62
73864;BME280;62200;52.062;5.292;2022-07-29T03:18:45;101722.59;;;14.36;71.68
73864;BME280;62200;52.062;5.292;2022-07-29T03:21:11;101727.44;;;14.44;71.56
73864;BME280;62200;52.062;5.292;2022-07-29T03:23:37;101724.00;;;14.42;72.62
73864;BME280;62200;52.062;5.292;2022-07-29T03:26:02;101720.41;;;14.43;72.23
73864;BME280;62200;52.062;5.292;2022-07-29T03:28:29;101719.66;;;14.41;72.55
73864;BME280;62200;52.062;5.292;2022-07-29T03:30:54;101710.75;;;14.40;72.21
73864;BME280;62200;52.062;5.292;2022-07-29T03:33:20;101718.56;;;14.43;72.35
73864;BME280;62200;52.062;5.292;2022-07-29T03:35:45;101713.22;;;14.43;71.83
73864;BME280;62200;52.062;5.292;2022-07-29T03:38:11;101710.63;;;14.42;72.17
73864;BME280;62200;52.062;5.292;2022-07-29T03:40:47;101714.41;;;14.52;71.84
73864;BME280;62200;52.062;5.292;2022-07-29T03:43:15;101708.94;;;14.41;71.98
73864;BME280;62200;52.062;5.292;2022-07-29T03:45:45;101710.63;;;14.42;72.17
73864;BME280;62200;52.062;5.292;2022-07-29T03:48:14;101708.94;;;14.41;71.74
73864;BME280;62200;52.062;5.292;2022-07-29T03:50:40;101711.50;;;14.42;71.97
73864;BME280;62200;52.062;5.292;2022-07-29T03:53:06;101724.66;;;14.45;72.03
73864;BME280;62200;52.062;5.292;2022-07-29T03:55:36;101703.69;;;14.39;71.81
73864;BME280;62200;52.062;5.292;2022-07-29T03:58:03;101707.09;;;14.41;72.16
73864;BME280;62200;52.062;5.292;2022-07-29T04:00:29;101696.94;;;14.34;71.75
73864;BME280;62200;52.062;5.292;2022-07-29T04:02:56;101702.84;;;14.39;72.10
73864;BME280;62200;52.062;5.292;2022-07-29T04:05:21;101711.50;;;14.42;72.16
73864;BME280;62200;52.062;5.292;2022-07-29T04:07:48;101702.06;;;14.37;71.35
73864;BME280;62200;52.062;5.292;2022-07-29T04:10:14;101704.00;;;14.35;71.41
73864;BME280;62200;52.062;5.292;2022-07-29T04:12:41;101705.06;;;14.32;71.50
73864;BME280;62200;52.062;5.292;2022-07-29T04:15:06;101709.16;;;14.38;71.23
73864;BME280;62200;52.062;5.292;2022-07-29T04:17:32;101708.41;;;14.36;70.99
73864;BME280;62200;52.062;5.292;2022-07-29T04:20:00;101710.84;;;14.39;71.49
73864;BME280;62200;52.062;5.292;2022-07-29T04:22:26;101700.47;;;14.34;71.29
73864;BME280;62200;52.062;5.292;2022-07-29T04:24:51;101708.06;;;14.40;71.86
73864;BME280;62200;52.062;5.292;2022-07-29T04:27:16;101699.28;;;14.38;71.06
73864;BME280;62200;52.062;5.292;2022-07-29T04:29:42;101708.31;;;14.50;71.06
73864;BME280;62200;52.062;5.292;2022-07-29T04:32:07;101699.06;;;14.41;71.18
73864;BME280;62200;52.062;5.292;2022-07-29T04:34:33;101707.03;;;14.43;71.33
73864;BME280;62200;52.062;5.292;2022-07-29T04:36:58;101704.25;;;14.44;71.06
73864;BME280;62200;52.062;5.292;2022-07-29T04:39:24;101708.50;;;14.47;70.37
73864;BME280;62200;52.062;5.292;2022-07-29T04:41:50;101703.59;;;14.41;71.66
73864;BME280;62200;52.062;5.292;2022-07-29T04:44:15;101707.22;;;14.40;70.60
73864;BME280;62200;52.062;5.292;2022-07-29T04:46:41;101707.84;;;14.43;71.82
73864;BME280;62200;52.062;5.292;2022-07-29T04:49:06;101706.25;;;14.41;71.39
73864;BME280;62200;52.062;5.292;2022-07-29T04:51:32;101716.44;;;14.48;71.74
73864;BME280;62200;52.062;5.292;2022-07-29T04:53:58;101711.63;;;14.53;71.20
73864;BME280;62200;52.062;5.292;2022-07-29T04:56:23;101715.16;;;14.54;71.14
73864;BME280;62200;52.062;5.292;2022-07-29T04:58:49;101706.19;;;14.55;70.83
73864;BME280;62200;52.062;5.292;2022-07-29T05:01:14;101710.25;;;14.60;70.53
73864;BME280;62200;52.062;5.292;2022-07-29T05:03:40;101721.41;;;14.67;69.95
73864;BME280;62200;52.062;5.292;2022-07-29T05:06:05;101719.38;;;14.70;70.50
73864;BME280;62200;52.062;5.292;2022-07-29T05:08:31;101715.19;;;14.66;70.49
73864;BME280;62200;52.062;5.292;2022-07-29T05:10:58;101717.25;;;14.75;70.96
73864;BME280;62200;52.062;5.292;2022-07-29T05:13:23;101707.38;;;14.76;69.95
73864;BME280;62200;52.062;5.292;2022-07-29T05:15:49;101721.00;;;14.85;70.66
73864;BME280;62200;52.062;5.292;2022-07-29T05:18:14;101711.34;;;14.83;70.11
73864;BME280;62200;52.062;5.292;2022-07-29T05:20:40;101708.78;;;14.94;70.11
73864;BME280;62200;52.062;5.292;2022-07-29T05:23:06;101720.78;;;15.01;69.54
73864;BME280;62200;52.062;5.292;2022-07-29T05:25:31;101723.25;;;15.04;69.98
73864;BME280;62200;52.062;5.292;2022-07-29T05:27:57;101729.13;;;15.09;69.36
73864;BME280;62200;52.062;5.292;2022-07-29T05:30:23;101733.22;;;15.14;69.68
73864;BME280;62200;52.062;5.292;2022-07-29T05:32:49;101726.47;;;15.22;68.94
73864;BME280;62200;52.062;5.292;2022-07-29T05:35:15;101724.72;;;15.20;69.12
73864;BME280;62200;52.062;5.292;2022-07-29T05:37:40;101730.84;;;15.23;68.46
73864;BME280;62200;52.062;5.292;2022-07-29T05:40:07;101740.06;;;15.31;69.15
73864;BME280;62200;52.062;5.292;2022-07-29T05:42:32;101732.53;;;15.36;68.84
73864;BME280;62200;52.062;5.292;2022-07-29T05:44:59;101731.72;;;15.36;68.47
73864;BME280;62200;52.062;5.292;2022-07-29T05:47:24;101747.16;;;15.45;68.41
73864;BME280;62200;52.062;5.292;2022-07-29T05:49:50;101739.44;;;15.53;68.02
73864;BME280;62200;52.062;5.292;2022-07-29T05:52:16;101714.69;;;15.49;68.13
73864;BME280;62200;52.062;5.292;2022-07-29T05:54:41;101730.31;;;15.55;67.50
73864;BME280;62200;52.062;5.292;2022-07-29T05:57:07;101720.56;;;15.54;67.18
73864;BME280;62200;52.062;5.292;2022-07-29T05:59:36;101719.47;;;15.57;67.53
73864;BME280;62200;52.062;5.292;2022-07-29T06:02:02;101735.66;;;15.55;67.96
73864;BME280;62200;52.062;5.292;2022-07-29T06:04:30;101728.84;;;15.51;67.70
73864;BME280;62200;52.062;5.292;2022-07-29T06:06:56;101743.94;;;15.52;67.52
73864;BME280;62200;52.062;5.292;2022-07-29T06:09:21;101736.44;;;15.45;68.50
73864;BME280;62200;52.062;5.292;2022-07-29T06:11:48;101731.28;;;15.54;67.89
73864;BME280;62200;52.062;5.292;2022-07-29T06:14:13;101738.47;;;15.54;67.96
73864;BME280;62200;52.062;5.292;2022-07-29T06:16:39;101740.28;;;15.53;68.55
73864;BME280;62200;52.062;5.292;2022-07-29T06:19:04;101741.38;;;15.51;68.32
73864;BME280;62200;52.062;5.292;2022-07-29T06:21:30;101748.94;;;15.57;67.89
73864;BME280;62200;52.062;5.292;2022-07-29T06:23:55;101762.78;;;15.63;68.20
73864;BME280;62200;52.062;5.292;2022-07-29T06:26:20;101759.34;;;15.61;67.02
73864;BME280;62200;52.062;5.292;2022-07-29T06:28:46;101759.13;;;15.64;67.73
73864;BME280;62200;52.062;5.292;2022-07-29T06:31:11;101761.28;;;15.72;68.38
73864;BME280;62200;52.062;5.292;2022-07-29T06:33:39;101757.06;;;15.80;67.72
73864;BME280;62200;52.062;5.292;2022-07-29T06:36:05;101759.28;;;15.86;67.79
73864;BME280;62200;52.062;5.292;2022-07-29T06:38:31;101761.75;;;15.89;67.09
73864;BME280;62200;52.062;5.292;2022-07-29T06:40:56;101761.63;;;15.91;67.42
73864;BME280;62200;52.062;5.292;2022-07-29T06:43:26;101777.91;;;16.00;67.94
73864;BME280;62200;52.062;5.292;2022-07-29T06:45:52;101778.78;;;16.01;68.39
73864;BME280;62200;52.062;5.292;2022-07-29T06:48:17;101778.19;;;16.08;66.84
73864;BME280;62200;52.062;5.292;2022-07-29T06:50:43;101778.19;;;16.08;67.27
73864;BME280;62200;52.062;5.292;2022-07-29T06:53:08;101774.06;;;16.04;67.64
73864;BME280;62200;52.062;5.292;2022-07-29T06:55:34;101770.78;;;16.12;66.53
73864;BME280;62200;52.062;5.292;2022-07-29T06:57:59;101783.53;;;16.21;67.90
73864;BME280;62200;52.062;5.292;2022-07-29T07:00:25;101778.63;;;16.39;65.87
73864;BME280;62200;52.062;5.292;2022-07-29T07:02:50;101788.53;;;16.62;65.85
73864;BME280;62200;52.062;5.292;2022-07-29T07:05:16;101779.31;;;16.77;64.84
73864;BME280;62200;52.062;5.292;2022-07-29T07:07:41;101778.53;;;16.98;65.18
73864;BME280;62200;52.062;5.292;2022-07-29T07:10:07;101768.66;;;17.10;64.28
73864;BME280;62200;52.062;5.292;2022-07-29T07:12:32;101776.00;;;17.19;62.38
73864;BME280;62200;52.062;5.292;2022-07-29T07:14:58;101780.91;;;17.25;62.73
73864;BME280;62200;52.062;5.292;2022-07-29T07:17:23;101785.91;;;17.40;62.91
73864;BME280;62200;52.062;5.292;2022-07-29T07:19:49;101770.91;;;17.38;61.13
73864;BME280;62200;52.062;5.292;2022-07-29T07:22:14;101772.66;;;17.50;62.20
73864;BME280;62200;52.062;5.292;2022-07-29T07:24:40;101752.25;;;17.59;62.15
73864;BME280;62200;52.062;5.292;2022-07-29T07:27:05;101755.03;;;17.68;61.85
73864;BME280;62200;52.062;5.292;2022-07-29T07:29:31;101755.91;;;17.69;61.19
73864;BME280;62200;52.062;5.292;2022-07-29T07:31:57;101766.28;;;17.73;62.58
73864;BME280;62200;52.062;5.292;2022-07-29T07:34:22;101768.00;;;17.74;61.10
73864;BME280;62200;52.062;5.292;2022-07-29T07:36:48;101762.38;;;17.77;61.52
73864;BME280;62200;52.062;5.292;2022-07-29T07:39:13;101764.09;;;17.78;61.34
73864;BME280;62200;52.062;5.292;2022-07-29T07:41:39;101757.81;;;17.89;62.16
73864;BME280;62200;52.062;5.292;2022-07-29T07:44:04;101763.06;;;18.12;61.01
73864;BME280;62200;52.062;5.292;2022-07-29T07:46:31;101761.66;;;18.18;60.70
73864;BME280;62200;52.062;5.292;2022-07-29T07:48:56;101769.59;;;18.30;60.30
73864;BME280;62200;52.062;5.292;2022-07-29T07:51:22;101761.25;;;18.33;60.78
73864;BME280;62200;52.062;5.292;2022-07-29T07:53:47;101753.69;;;18.38;60.99
73864;BME280;62200;52.062;5.292;2022-07-29T07:56:15;101767.38;;;18.46;61.22
73864;BME280;62200;52.062;5.292;2022-07-29T07:58:41;101758.56;;;18.44;61.25
73864;BME280;62200;52.062;5.292;2022-07-29T08:01:08;101747.53;;;18.47;59.96
73864;BME280;62200;52.062;5.292;2022-07-29T08:03:33;101740.28;;;18.59;60.57
73864;BME280;62200;52.062;5.292;2022-07-29T08:05:59;101724.75;;;18.51;60.81
73864;BME280;62200;52.062;5.292;2022-07-29T08:08:24;101737.38;;;18.72;60.82
73864;BME280;62200;52.062;5.292;2022-07-29T08:10:50;101731.88;;;18.94;59.90
73864;BME280;62200;52.062;5.292;2022-07-29T08:13:23;101744.03;;;19.09;59.19
73864;BME280;62200;52.062;5.292;2022-07-29T08:15:50;101750.72;;;19.35;57.90
73864;BME280;62200;52.062;5.292;2022-07-29T08:18:27;101762.97;;;19.69;57.58
73864;BME280;62200;52.062;5.292;2022-07-29T08:20:53;101760.88;;;19.92;57.43
73864;BME280;62200;52.062;5.292;2022-07-29T08:23:18;101760.06;;;19.91;56.54
73864;BME280;62200;52.062;5.292;2022-07-29T08:25:44;101762.47;;;19.94;56.37
73864;BME280;62200;52.062;5.292;2022-07-29T08:28:09;101742.66;;;19.74;54.97
73864;BME280;62200;52.062;5.292;2022-07-29T08:30:35;101748.63;;;19.78;57.29
73864;BME280;62200;52.062;5.292;2022-07-29T08:33:00;101757.16;;;19.73;57.04
73864;BME280;62200;52.062;5.292;2022-07-29T08:35:26;101757.88;;;19.85;57.30
73864;BME280;62200;52.062;5.292;2022-07-29T08:37:53;101756.66;;;19.99;56.50
73864;BME280;62200;52.062;5.292;2022-07-29T08:40:19;101763.06;;;20.07;55.55
73864;BME280;62200;52.062;5.292;2022-07-29T08:42:46;101763.50;;;20.12;56.64
73864;BME280;62200;52.062;5.292;2022-07-29T08:45:11;101766.25;;;20.31;54.24
73864;BME280;62200;52.062;5.292;2022-07-29T08:47:38;101767.88;;;20.53;56.04
73864;BME280;62200;52.062;5.292;2022-07-29T08:50:06;101765.56;;;20.86;54.61
73864;BME280;62200;52.062;5.292;2022-07-29T08:52:33;101763.84;;;21.14;52.51
73864;BME280;62200;52.062;5.292;2022-07-29T08:55:01;101769.19;;;21.43;51.24
73864;BME280;62200;52.062;5.292;2022-07-29T08:57:27;101766.13;;;21.55;50.11
73864;BME280;62200;52.062;5.292;2022-07-29T08:59:54;101762.75;;;21.90;50.81
73864;BME280;62200;52.062;5.292;2022-07-29T09:02:21;101755.78;;;21.87;49.52
73864;BME280;62200;52.062;5.292;2022-07-29T09:04:48;101757.84;;;22.03;47.97
73864;BME280;62200;52.062;5.292;2022-07-29T09:07:18;101757.69;;;22.22;48.16
73864;BME280;62200;52.062;5.292;2022-07-29T09:09:44;101756.91;;;22.12;47.03
73864;BME280;62200;52.062;5.292;2022-07-29T09:12:12;101757.28;;;22.17;47.02
73864;BME280;62200;52.062;5.292;2022-07-29T09:14:38;101759.75;;;22.55;48.22
73864;BME280;62200;52.062;5.292;2022-07-29T09:17:04;101752.19;;;22.59;44.94
73864;BME280;62200;52.062;5.292;2022-07-29T09:19:32;101752.25;;;22.67;46.87
73864;BME280;62200;52.062;5.292;2022-07-29T09:22:00;101745.56;;;22.79;47.70
73864;BME280;62200;52.062;5.292;2022-07-29T09:24:42;101736.78;;;23.02;45.01
73864;BME280;62200;52.062;5.292;2022-07-29T09:27:18;101739.66;;;23.27;45.48
73864;BME280;62200;52.062;5.292;2022-07-29T09:29:44;101741.59;;;23.34;45.45
73864;BME280;62200;52.062;5.292;2022-07-29T09:32:10;101746.84;;;23.36;43.32
73864;BME280;62200;52.062;5.292;2022-07-29T09:34:36;101734.31;;;23.17;43.53
73864;BME280;62200;52.062;5.292;2022-07-29T09:37:02;101733.63;;;23.33;43.92
73864;BME280;62200;52.062;5.292;2022-07-29T09:41:58;101734.31;;;24.02;42.83
73864;BME280;62200;52.062;5.292;2022-07-29T09:44:24;101731.38;;;23.62;41.52
73864;BME280;62200;52.062;5.292;2022-07-29T09:46:56;101750.16;;;23.89;43.26
73864;BME280;62200;52.062;5.292;2022-07-29T09:49:25;101739.81;;;23.92;43.81
73864;BME280;62200;52.062;5.292;2022-07-29T09:52:03;101741.50;;;24.27;42.53
73864;BME280;62200;52.062;5.292;2022-07-29T09:54:29;101738.13;;;24.41;42.57
73864;BME280;62200;52.062;5.292;2022-07-29T09:56:59;101741.41;;;24.69;41.90
73864;BME280;62200;52.062;5.292;2022-07-29T09:59:25;101736.47;;;24.80;41.22
73864;BME280;62200;52.062;5.292;2022-07-29T10:01:52;101739.72;;;24.92;41.17
73864;BME280;62200;52.062;5.292;2022-07-29T10:04:18;101744.94;;;25.09;41.86
73864;BME280;62200;52.062;5.292;2022-07-29T10:07:01;101732.50;;;25.31;38.85
73864;BME280;62200;52.062;5.292;2022-07-29T10:09:27;101735.72;;;25.43;40.78
73864;BME280;62200;52.062;5.292;2022-07-29T10:12:10;101743.88;;;25.51;40.26
73864;BME280;62200;52.062;5.292;2022-07-29T10:14:38;101733.66;;;25.61;39.33
73864;BME280;62200;52.062;5.292;2022-07-29T10:17:05;101721.19;;;25.66;39.02
73864;BME280;62200;52.062;5.292;2022-07-29T10:19:32;101723.97;;;25.89;38.36
73864;BME280;62200;52.062;5.292;2022-07-29T10:21:59;101727.59;;;25.81;39.52
73864;BME280;62200;52.062;5.292;2022-07-29T10:24:29;101736.91;;;25.95;38.68
73864;BME280;62200;52.062;5.292;2022-07-29T10:26:57;101711.69;;;25.54;36.88
73864;BME280;62200;52.062;5.292;2022-07-29T10:29:24;101733.06;;;25.73;38.57
73864;BME280;62200;52.062;5.292;2022-07-29T10:37:22;101735.84;;;25.96;38.23
73864;BME280;62200;52.062;5.292;2022-07-29T10:43:20;101718.53;;;25.89;39.50
73864;BME280;62200;52.062;5.292;2022-07-29T10:45:48;101717.91;;;26.17;38.55
73864;BME280;62200;52.062;5.292;2022-07-29T10:48:13;101724.09;;;26.03;38.76
73864;BME280;62200;52.062;5.292;2022-07-29T10:51:01;101722.66;;;25.85;39.91
73864;BME280;62200;52.062;5.292;2022-07-29T10:53:49;101731.00;;;25.37;40.10
73864;BME280;62200;52.062;5.292;2022-07-29T10:56:27;101728.28;;;25.04;41.39
73864;BME280;62200;52.062;5.292;2022-07-29T11:01:47;101731.84;;;25.21;39.56
73864;BME280;62200;52.062;5.292;2022-07-29T11:04:13;101736.78;;;25.09;40.04
73864;BME280;62200;52.062;5.292;2022-07-29T11:09:26;101733.06;;;24.70;41.63
73864;BME280;62200;52.062;5.292;2022-07-29T11:11:51;101728.97;;;24.42;41.16
73864;BME280;62200;52.062;5.292;2022-07-29T11:14:18;101723.00;;;24.47;42.47
73864;BME280;62200;52.062;5.292;2022-07-29T11:17:00;101718.94;;;24.59;40.16
73864;BME280;62200;52.062;5.292;2022-07-29T11:19:29;101729.00;;;24.90;41.35
73864;BME280;62200;52.062;5.292;2022-07-29T11:21:55;101711.25;;;25.18;40.68
73864;BME280;62200;52.062;5.292;2022-07-29T11:24:26;101717.34;;;25.45;40.83
73864;BME280;62200;52.062;5.292;2022-07-29T11:27:15;101718.31;;;25.68;41.26
73864;BME280;62200;52.062;5.292;2022-07-29T11:32:14;101722.34;;;25.72;36.82
73864;BME280;62200;52.062;5.292;2022-07-29T11:34:41;101728.78;;;25.79;37.88
73864;BME280;62200;52.062;5.292;2022-07-29T11:45:19;101719.75;;;25.40;39.99
73864;BME280;62200;52.062;5.292;2022-07-29T11:50:13;101718.03;;;25.47;39.58
73864;BME280;62200;52.062;5.292;2022-07-29T11:52:44;101719.75;;;25.40;39.13
73864;BME280;62200;52.062;5.292;2022-07-29T11:55:14;101716.34;;;25.21;39.36
73864;BME280;62200;52.062;5.292;2022-07-29T11:57:51;101719.09;;;25.13;39.16
73864;BME280;62200;52.062;5.292;2022-07-29T12:00:37;101721.13;;;25.19;40.16
73864;BME280;62200;52.062;5.292;2022-07-29T12:03:08;101724.84;;;25.34;41.11
73864;BME280;62200;52.062;5.292;2022-07-29T12:05:39;101722.13;;;25.43;40.61
73864;BME280;62200;52.062;5.292;2022-07-29T12:08:06;101719.53;;;25.49;41.19
73864;BME280;62200;52.062;5.292;2022-07-29T12:10:32;101712.69;;;25.61;40.64
73864;BME280;62200;52.062;5.292;2022-07-29T12:12:57;101708.91;;;25.70;42.30
73864;BME280;62200;52.062;5.292;2022-07-29T12:15:23;101713.91;;;25.59;40.38
73864;BME280;62200;52.062;5.292;2022-07-29T12:17:49;101719.22;;;25.52;40.54
73864;BME280;62200;52.062;5.292;2022-07-29T12:20:23;101714.75;;;25.59;40.45
73864;BME280;62200;52.062;5.292;2022-07-29T12:22:49;101711.81;;;25.69;41.52
73864;BME280;62200;52.062;5.292;2022-07-29T12:25:15;101729.41;;;25.97;40.88
73864;BME280;62200;52.062;5.292;2022-07-29T12:27:42;101710.97;;;25.99;40.51
73864;BME280;62200;52.062;5.292;2022-07-29T12:30:15;101729.63;;;26.18;39.05
73864;BME280;62200;52.062;5.292;2022-07-29T12:32:48;101707.19;;;25.77;40.20
73864;BME280;62200;52.062;5.292;2022-07-29T12:35:19;101721.63;;;25.39;40.23
73864;BME280;62200;52.062;5.292;2022-07-29T12:37:45;101727.25;;;25.13;40.76
73864;BME280;62200;52.062;5.292;2022-07-29T12:40:13;101709.44;;;24.95;41.28
73864;BME280;62200;52.062;5.292;2022-07-29T12:42:40;101739.19;;;24.96;43.53
73864;BME280;62200;52.062;5.292;2022-07-29T12:45:06;101730.66;;;25.15;43.25
73864;BME280;62200;52.062;5.292;2022-07-29T12:47:33;101731.00;;;25.37;42.28
73864;BME280;62200;52.062;5.292;2022-07-29T12:50:12;101719.44;;;25.10;40.23
73864;BME280;62200;52.062;5.292;2022-07-29T12:52:40;101721.66;;;25.07;41.97
73864;BME280;62200;52.062;5.292;2022-07-29T12:55:06;101716.53;;;25.28;41.51
73864;BME280;62200;52.062;5.292;2022-07-29T12:57:32;101715.50;;;25.37;42.87
73864;BME280;62200;52.062;5.292;2022-07-29T13:02:31;101711.13;;;24.96;40.82
73864;BME280;62200;52.062;5.292;2022-07-29T13:05:01;101712.84;;;24.81;40.75
73864;BME280;62200;52.062;5.292;2022-07-29T13:07:28;101698.22;;;24.74;41.53
73864;BME280;62200;52.062;5.292;2022-07-29T13:10:09;101703.84;;;24.72;42.06
73864;BME280;62200;52.062;5.292;2022-07-29T13:12:35;101705.88;;;24.70;42.07
73864;BME280;62200;52.062;5.292;2022-07-29T13:15:00;101704.34;;;24.76;40.86
73864;BME280;62200;52.062;5.292;2022-07-29T13:17:40;101711.16;;;24.72;41.62
73864;BME280;62200;52.062;5.292;2022-07-29T13:20:09;101704.88;;;24.71;42.46
73864;BME280;62200;52.062;5.292;2022-07-29T13:22:38;101711.66;;;24.75;42.28
73864;BME280;62200;52.062;5.292;2022-07-29T13:25:03;101710.47;;;24.86;41.91
73864;BME280;62200;52.062;5.292;2022-07-29T13:27:33;101705.19;;;25.00;42.79
73864;BME280;62200;52.062;5.292;2022-07-29T13:30:00;101707.00;;;25.24;42.03
73864;BME280;62200;52.062;5.292;2022-07-29T13:32:29;101694.72;;;25.44;42.42